Time;durP1;ratioP1;P1;durP2;ratioP2;P2;SDS_P1;SDS_P2;PMS_P1;PMS_P2;Temp;Humidity;BMP_temperature;BMP_pressure;BME280_temperature;BME280_humidity;BME280_pressure;Samples;Min_cycle;Max_cycle;Signal;HPM_P1;HPM_P2
2022/08/01 09:36:23;;;;;;;2.20;1.27;;;;;;;25.78;49.77;99020.75;5159957;27;20445;-81
2022/08/01 09:38:50;;;;;;;4.20;1.02;;;;;;;26.40;49.06;99028.66;5157705;27;20415;-81
2022/08/01 09:41:28;;;;;;;1.77;1.27;;;;;;;26.63;47.81;99028.97;5150139;27;20180;-81
2022/08/01 09:43:55;;;;;;;1.88;1.30;;;;;;;27.25;46.10;99034.72;5147851;27;20039;-82
2022/08/01 09:46:22;;;;;;;5.00;1.70;;;;;;;27.04;46.68;99048.09;5142940;27;20537;-81
2022/08/01 09:48:59;;;;;;;1.45;1.13;;;;;;;26.99;47.37;99051.78;5142032;27;20554;-80
2022/08/01 09:51:32;;;;;;;2.42;1.52;;;;;;;26.69;47.67;99038.97;5149215;27;20055;-82
2022/08/01 09:53:59;;;;;;;7.07;1.63;;;;;;;26.96;47.37;99049.59;5148943;27;20061;-81
2022/08/01 09:56:26;;;;;;;3.22;1.50;;;;;;;26.99;46.57;99028.63;5146570;27;20050;-82
2022/08/01 09:58:58;;;;;;;2.92;1.83;;;;;;;27.51;45.60;99038.03;5149695;27;20421;-83
2022/08/01 10:01:25;;;;;;;2.35;1.38;;;;;;;27.86;45.37;99026.63;5147540;27;20095;-82
2022/08/01 10:04:06;;;;;;;3.35;2.47;;;;;;;27.86;45.07;99046.19;5148904;27;20066;-81
2022/08/01 10:06:35;;;;;;;1.58;1.30;;;;;;;27.06;46.07;99045.84;5149024;27;20057;-81
2022/08/01 10:09:02;;;;;;;2.73;1.70;;;;;;;26.78;47.41;99037.25;5149169;27;20058;-80
2022/08/01 10:11:31;;;;;;;3.42;1.63;;;;;;;27.07;47.12;99039.13;5146519;27;20859;-80
2022/08/01 10:13:59;;;;;;;3.97;2.08;;;;;;;27.12;46.73;99019.53;5148240;27;20043;-81
2022/08/01 10:16:27;;;;;;;2.03;1.70;;;;;;;27.17;46.64;99032.59;5149010;27;20220;-81
2022/08/01 10:18:54;;;;;;;2.15;1.90;;;;;;;27.05;46.79;99037.75;5148726;27;20126;-81
2022/08/01 10:21:25;;;;;;;3.00;1.92;;;;;;;27.35;46.50;99025.41;5153752;27;20049;-80
2022/08/01 10:23:55;;;;;;;3.42;2.15;;;;;;;27.70;45.26;99001.75;5152188;27;20050;-81
2022/08/01 10:26:25;;;;;;;4.10;1.80;;;;;;;28.00;45.24;99022.00;5152253;27;20051;-81
2022/08/01 10:28:53;;;;;;;3.58;1.92;;;;;;;27.82;44.57;99003.25;5148485;27;20043;-80
2022/08/01 10:31:20;;;;;;;2.08;1.60;;;;;;;27.43;45.26;98999.63;5146763;27;20047;-80
2022/08/01 10:33:47;;;;;;;4.53;2.08;;;;;;;27.60;45.37;99029.81;5148408;27;20493;-81
2022/08/01 10:36:14;;;;;;;2.80;2.05;;;;;;;27.80;44.69;99023.09;5148424;27;20473;-81
2022/08/01 10:38:41;;;;;;;2.72;2.28;;;;;;;27.83;44.40;99010.50;5149463;27;20043;-80
2022/08/01 10:41:10;;;;;;;3.90;1.98;;;;;;;28.39;43.66;99009.59;5146593;27;20043;-80
2022/08/01 10:43:36;;;;;;;2.75;1.85;;;;;;;28.95;42.61;99016.09;5145740;27;20042;-80
2022/08/01 10:46:04;;;;;;;1.95;1.58;;;;;;;29.21;41.21;99009.19;5143575;27;20043;-82
2022/08/01 10:48:40;;;;;;;4.28;1.40;;;;;;;28.83;41.40;98999.00;5132571;27;20054;-81
2022/08/01 10:51:08;;;;;;;2.10;1.50;;;;;;;28.65;41.75;99003.56;5131649;27;20055;-81
2022/08/01 10:53:35;;;;;;;1.58;1.30;;;;;;;27.87;43.46;98994.78;5125267;27;20065;-80
2022/08/01 10:56:04;;;;;;;2.00;1.30;;;;;;;27.64;43.79;99024.44;5132159;27;20047;-81
2022/08/01 10:58:36;;;;;;;4.33;1.40;;;;;;;27.79;43.35;99001.06;5134011;27;20078;-80
2022/08/01 11:01:24;;;;;;;1.40;1.30;;;;;;;27.83;42.99;99007.69;5132360;27;20305;-81
2022/08/01 11:04:10;;;;;;;1.33;1.23;;;;;;;28.39;42.99;99001.22;5132306;27;20050;-82
2022/08/01 11:06:52;;;;;;;1.92;1.55;;;;;;;29.01;41.67;99019.63;5112591;28;20417;-81
2022/08/01 11:09:28;;;;;;;2.28;1.30;;;;;;;28.45;42.15;98998.31;5119347;27;20137;-81
2022/08/01 11:12:01;;;;;;;1.48;1.38;;;;;;;28.85;41.63;99002.31;5128063;27;20572;-82
2022/08/01 11:14:30;;;;;;;1.55;1.30;;;;;;;28.96;40.83;98978.56;5129288;27;20530;-83
2022/08/01 11:17:17;;;;;;;3.90;1.45;;;;;;;29.39;40.75;98996.22;5130502;27;20031;-81
2022/08/01 11:20:09;;;;;;;3.97;1.48;;;;;;;29.32;38.90;99001.41;5125256;27;20050;-82
2022/08/01 11:23:34;;;;;;;1.20;1.00;;;;;;;29.40;39.27;98997.84;5123364;27;20397;-82
2022/08/01 11:26:11;;;;;;;3.20;1.30;;;;;;;29.16;39.26;98998.06;5122848;27;20059;-81
2022/08/01 11:28:39;;;;;;;1.83;1.33;;;;;;;29.46;39.55;98980.63;5132135;27;20096;-82
2022/08/01 11:31:30;;;;;;;3.47;1.50;;;;;;;29.77;38.30;98988.28;5131384;27;20043;-81
2022/08/01 11:33:56;;;;;;;1.10;1.00;;;;;;;29.61;38.12;98999.06;5124917;27;20065;-82
2022/08/01 11:36:23;;;;;;;2.55;0.90;;;;;;;29.68;38.61;98984.59;5132492;27;20053;-83
2022/08/01 11:39:06;;;;;;;2.00;1.15;;;;;;;29.78;38.30;98975.09;5131103;27;20047;-81
2022/08/01 11:41:33;;;;;;;2.17;1.08;;;;;;;29.71;38.01;98957.94;5130445;27;20043;-80
2022/08/01 11:44:03;;;;;;;2.28;1.33;;;;;;;29.77;38.52;98976.28;5146338;27;20050;-81
2022/08/01 11:46:54;;;;;;;2.75;1.30;;;;;;;29.66;39.10;98970.09;5130653;27;20050;-81
2022/08/01 11:49:35;;;;;;;2.50;0.98;;;;;;;29.79;38.23;98965.56;5140012;27;20154;-81
2022/08/01 11:52:06;;;;;;;3.92;1.17;;;;;;;29.87;38.00;98962.06;5129661;27;20047;-81
2022/08/01 11:54:35;;;;;;;2.15;1.30;;;;;;;29.74;38.21;98949.72;5131192;27;20512;-81
2022/08/01 11:57:04;;;;;;;5.40;1.38;;;;;;;29.56;37.83;98931.94;5139325;27;20474;-81
2022/08/01 11:59:37;;;;;;;1.25;0.90;;;;;;;29.80;37.86;98954.03;5138229;27;20039;-81
2022/08/01 12:02:15;;;;;;;1.40;1.00;;;;;;;29.33;38.57;98959.09;5135821;27;20059;-81
2022/08/01 12:04:49;;;;;;;1.30;1.08;;;;;;;29.22;39.17;98958.50;5123888;27;20053;-81
2022/08/01 12:07:17;;;;;;;3.58;1.10;;;;;;;29.41;38.92;98951.91;5141511;27;20055;-81
2022/08/01 12:09:44;;;;;;;1.10;1.00;;;;;;;29.91;37.80;98954.63;5133690;27;20405;-81
2022/08/01 12:12:11;;;;;;;1.23;0.90;;;;;;;30.33;37.16;98931.97;5136982;27;20039;-83
2022/08/01 12:14:38;;;;;;;1.27;1.00;;;;;;;30.33;37.28;98946.81;5145220;27;20038;-81
2022/08/01 12:17:06;;;;;;;1.30;1.17;;;;;;;30.04;37.22;98950.13;5137939;27;20043;-80
2022/08/01 12:19:33;;;;;;;7.53;1.30;;;;;;;29.71;37.96;98944.75;5132765;27;20039;-81
2022/08/01 12:22:12;;;;;;;2.40;1.00;;;;;;;29.96;38.15;98928.47;5144783;27;20046;-82
2022/08/01 12:24:40;;;;;;;2.00;1.00;;;;;;;30.05;37.26;98928.53;5125616;27;20051;-81
2022/08/01 12:27:09;;;;;;;2.08;1.02;;;;;;;30.14;36.92;98943.41;5127786;27;20043;-82
2022/08/01 12:29:37;;;;;;;3.97;1.45;;;;;;;30.41;37.42;98938.81;5131091;27;20466;-81
2022/08/01 12:32:22;;;;;;;1.90;1.10;;;;;;;30.09;37.14;98932.34;5147250;27;20085;-82
2022/08/01 12:34:49;;;;;;;1.35;0.90;;;;;;;30.59;36.88;98926.50;5124535;27;20055;-81
2022/08/01 12:37:17;;;;;;;1.42;1.00;;;;;;;30.60;35.99;98932.97;5139903;27;20052;-81
2022/08/01 12:39:45;;;;;;;1.27;1.10;;;;;;;30.82;36.16;98943.28;5134892;27;20034;-81
2022/08/01 12:42:12;;;;;;;3.03;1.23;;;;;;;31.20;35.37;98925.91;5132693;27;20050;-81
2022/08/01 12:44:40;;;;;;;2.30;1.40;;;;;;;31.30;34.09;98922.78;5126136;27;20066;-81
2022/08/01 12:47:09;;;;;;;1.63;1.20;;;;;;;31.35;34.40;98911.38;5130985;27;20137;-81
2022/08/01 12:49:37;;;;;;;1.55;1.08;;;;;;;30.93;34.65;98919.38;5136626;27;20047;-81
2022/08/01 12:52:06;;;;;;;4.70;1.02;;;;;;;30.84;35.95;98896.88;5138117;27;20054;-80
2022/08/01 12:55:00;;;;;;;2.65;0.85;;;;;;;30.92;36.17;98920.50;5140939;27;20042;-84
2022/08/01 12:57:27;;;;;;;1.38;0.90;;;;;;;30.88;35.65;98906.31;5126981;27;20450;-81
2022/08/01 12:59:54;;;;;;;2.72;0.88;;;;;;;30.72;36.05;98935.97;5131015;27;20043;-81
2022/08/01 13:02:32;;;;;;;1.00;0.73;;;;;;;30.52;36.46;98920.56;5127577;27;20149;-81
2022/08/01 13:04:59;;;;;;;6.70;1.48;;;;;;;31.00;35.84;98919.75;5125024;27;20043;-81
2022/08/01 13:07:36;;;;;;;1.02;0.88;;;;;;;30.82;36.21;98930.06;5120704;27;20406;-81
2022/08/01 13:10:03;;;;;;;2.30;0.90;;;;;;;30.81;36.08;98916.38;5128742;27;20055;-81
2022/08/01 13:12:29;;;;;;;0.90;0.90;;;;;;;30.69;36.49;98917.81;5122621;27;20055;-81
2022/08/01 13:14:56;;;;;;;5.97;0.88;;;;;;;30.46;36.35;98902.22;5132191;27;20043;-82
2022/08/01 13:17:35;;;;;;;0.73;0.70;;;;;;;30.54;36.30;98935.91;5128218;27;20046;-81
2022/08/01 13:20:01;;;;;;;3.30;1.02;;;;;;;30.69;36.67;98922.59;5123126;27;20039;-81
2022/08/01 13:22:40;;;;;;;4.60;1.08;;;;;;;30.48;36.38;98916.75;5118702;27;20089;-82
2022/08/01 13:25:13;;;;;;;2.78;1.10;;;;;;;30.63;35.69;98907.88;5129970;27;20074;-80
2022/08/01 13:27:40;;;;;;;3.00;1.40;;;;;;;30.13;37.19;98922.97;5136720;27;20043;-81
2022/08/01 13:30:17;;;;;;;4.75;1.10;;;;;;;29.87;37.34;98906.00;5129613;27;20057;-81
2022/08/01 13:33:01;;;;;;;2.65;1.10;;;;;;;30.30;36.57;98919.44;5126762;27;20142;-82
2022/08/01 13:35:28;;;;;;;1.38;1.02;;;;;;;30.85;35.65;98901.34;5145573;27;20418;-81
2022/08/01 13:37:56;;;;;;;2.25;0.90;;;;;;;30.84;35.47;98902.50;5143108;27;20142;-81
2022/08/01 13:40:27;;;;;;;1.50;1.20;;;;;;;31.15;34.82;98903.56;5128432;28;20058;-82
2022/08/01 13:42:56;;;;;;;3.10;1.10;;;;;;;31.23;35.21;98902.78;5130047;27;20049;-81
2022/08/01 13:45:25;;;;;;;1.75;0.77;;;;;;;30.45;35.98;98917.41;5123496;27;20160;-80
2022/08/01 13:47:53;;;;;;;1.05;0.80;;;;;;;30.14;36.65;98891.00;5131402;27;20139;-80
2022/08/01 13:50:19;;;;;;;3.88;0.93;;;;;;;29.51;37.87;98900.44;5125283;27;20047;-80
2022/08/01 13:52:46;;;;;;;2.25;1.33;;;;;;;29.94;37.95;98906.38;5119576;27;20074;-80
2022/08/01 13:55:13;;;;;;;1.25;1.05;;;;;;;30.00;37.03;98916.31;5128293;27;20089;-82
2022/08/01 13:57:39;;;;;;;2.92;1.02;;;;;;;30.18;36.75;98899.59;5145012;27;20058;-81
2022/08/01 14:00:09;;;;;;;4.30;1.20;;;;;;;30.00;37.42;98904.25;5131498;27;20415;-79
2022/08/01 14:02:36;;;;;;;1.45;1.20;;;;;;;29.87;37.86;98908.81;5127207;28;20047;-80
2022/08/01 14:05:04;;;;;;;1.17;1.00;;;;;;;29.44;38.67;98909.28;5134921;27;20046;-82
2022/08/01 14:07:31;;;;;;;3.38;1.30;;;;;;;29.40;38.02;98885.84;5141479;27;20146;-80
2022/08/01 14:09:57;;;;;;;3.65;1.30;;;;;;;29.65;38.80;98895.59;5142345;27;20060;-81
2022/08/01 14:12:24;;;;;;;1.67;1.30;;;;;;;29.38;38.16;98876.94;5150963;27;20058;-81
2022/08/01 14:14:50;;;;;;;1.55;1.20;;;;;;;29.39;38.74;98878.63;5129697;27;20039;-80
2022/08/01 14:17:17;;;;;;;1.42;0.98;;;;;;;29.55;38.03;98898.66;5124316;27;20501;-81
2022/08/01 14:19:44;;;;;;;3.42;1.15;;;;;;;29.42;38.48;98900.38;5136377;27;20405;-80
2022/08/01 14:22:12;;;;;;;1.75;0.95;;;;;;;29.75;38.05;98894.50;5145104;27;20061;-80
2022/08/01 14:24:38;;;;;;;2.83;1.40;;;;;;;29.65;38.32;98885.22;5152901;27;20046;-81
2022/08/01 14:27:05;;;;;;;4.53;0.90;;;;;;;29.63;38.11;98892.31;5149563;27;20064;-81
2022/08/01 14:29:31;;;;;;;2.13;1.30;;;;;;;30.04;37.51;98870.84;5146887;27;20047;-81
2022/08/01 14:31:58;;;;;;;2.72;1.23;;;;;;;30.03;37.12;98900.81;5133649;27;20043;-80
2022/08/01 14:34:25;;;;;;;1.95;1.10;;;;;;;30.14;36.77;98898.56;5143679;27;20058;-81
2022/08/01 14:36:53;;;;;;;2.08;0.93;;;;;;;30.02;37.29;98893.59;5150305;27;20049;-81
2022/08/01 14:39:21;;;;;;;1.33;1.10;;;;;;;30.30;36.57;98891.38;5149971;27;20477;-81
2022/08/01 14:41:47;;;;;;;1.15;1.08;;;;;;;30.40;36.17;98892.25;5149226;27;20761;-81
2022/08/01 14:44:14;;;;;;;3.45;1.30;;;;;;;30.27;35.87;98877.22;5151730;27;20057;-80
2022/08/01 14:46:43;;;;;;;4.07;1.02;;;;;;;30.73;35.69;98889.09;5147666;27;20042;-81
2022/08/01 14:49:10;;;;;;;1.55;1.40;;;;;;;30.66;35.34;98883.97;5142913;27;20827;-83
2022/08/01 14:51:37;;;;;;;2.83;1.10;;;;;;;30.51;35.43;98880.47;5138136;27;20046;-80
2022/08/01 14:54:05;;;;;;;3.25;1.05;;;;;;;30.25;36.21;98883.13;5141451;27;20103;-79
2022/08/01 14:56:33;;;;;;;2.60;0.95;;;;;;;29.99;36.25;98882.97;5145481;27;20054;-81
2022/08/01 14:58:59;;;;;;;1.08;0.95;;;;;;;30.32;35.37;98897.53;5139995;27;20039;-80
2022/08/01 15:01:26;;;;;;;3.40;1.00;;;;;;;30.00;35.98;98867.84;5145628;27;20038;-81
2022/08/01 15:03:52;;;;;;;0.73;0.73;;;;;;;30.66;35.00;98878.38;5149131;27;20047;-80
2022/08/01 15:06:19;;;;;;;2.17;1.10;;;;;;;30.69;35.05;98884.13;5149504;27;20042;-80
2022/08/01 15:08:46;;;;;;;2.67;1.10;;;;;;;30.35;35.49;98884.81;5145566;27;20043;-80
2022/08/01 15:11:12;;;;;;;1.55;1.05;;;;;;;30.25;35.45;98871.91;5155688;27;20045;-80
2022/08/01 15:13:40;;;;;;;1.20;1.00;;;;;;;30.14;35.46;98891.00;5136825;27;20477;-81
2022/08/01 15:16:07;;;;;;;2.00;1.00;;;;;;;29.92;35.72;98885.44;5152532;27;20137;-81
2022/08/01 15:18:34;;;;;;;1.98;1.00;;;;;;;29.74;36.34;98882.47;5142518;27;20069;-81
2022/08/01 15:21:00;;;;;;;2.40;1.20;;;;;;;29.52;36.67;98890.88;5149363;27;20049;-80
2022/08/01 15:23:27;;;;;;;1.38;0.88;;;;;;;29.42;36.71;98872.38;5146495;27;20512;-81
2022/08/01 15:25:54;;;;;;;6.90;1.10;;;;;;;30.04;36.05;98893.25;5143620;27;20066;-81
2022/08/01 15:28:20;;;;;;;4.10;1.10;;;;;;;30.52;35.17;98886.91;5141583;27;20130;-81
2022/08/01 15:30:48;;;;;;;4.45;1.05;;;;;;;30.67;33.98;98878.03;5152151;27;20549;-81
2022/08/01 15:33:15;;;;;;;0.88;0.80;;;;;;;30.34;35.05;98875.59;5144583;27;20043;-81
2022/08/01 15:35:42;;;;;;;2.38;1.00;;;;;;;30.04;35.24;98865.22;5145718;27;20050;-80
2022/08/01 15:38:09;;;;;;;1.02;0.80;;;;;;;29.69;36.50;98891.03;5128850;27;20115;-80
2022/08/01 15:40:35;;;;;;;2.72;0.90;;;;;;;29.54;36.46;98891.38;5129163;27;20054;-80
2022/08/01 15:43:10;;;;;;;2.63;1.02;;;;;;;29.39;37.47;98892.63;5141746;27;20046;-80
2022/08/01 15:45:37;;;;;;;2.60;1.00;;;;;;;29.44;37.20;98886.88;5129962;27;20447;-80
2022/08/01 15:48:06;;;;;;;1.30;0.90;;;;;;;28.83;38.01;98895.50;5148887;27;20066;-80
2022/08/01 15:50:32;;;;;;;0.73;0.73;;;;;;;28.87;38.12;98898.50;5144277;27;20686;-80
2022/08/01 15:52:59;;;;;;;1.42;0.82;;;;;;;28.78;37.92;98887.22;5144711;27;20070;-80
2022/08/01 15:55:26;;;;;;;3.60;0.85;;;;;;;28.96;37.90;98879.84;5137916;27;20066;-80
2022/08/01 15:57:53;;;;;;;1.35;0.80;;;;;;;28.83;37.79;98881.53;5140165;27;20127;-79
2022/08/01 16:00:19;;;;;;;2.03;1.00;;;;;;;29.04;37.25;98881.06;5145182;27;20470;-80
2022/08/01 16:02:47;;;;;;;4.78;1.00;;;;;;;29.02;37.77;98892.56;5138344;27;20132;-80
2022/08/01 16:05:15;;;;;;;1.42;0.80;;;;;;;28.95;37.72;98889.34;5133663;27;20045;-80
2022/08/01 16:07:41;;;;;;;4.82;0.90;;;;;;;28.74;37.89;98884.22;5142475;27;20043;-80
2022/08/01 16:10:09;;;;;;;3.17;0.80;;;;;;;28.57;38.56;98895.16;5139503;27;20129;-81
2022/08/01 16:12:35;;;;;;;2.88;1.00;;;;;;;28.47;38.94;98870.22;5142479;27;20042;-80
2022/08/01 16:15:02;;;;;;;2.67;0.82;;;;;;;28.43;39.14;98870.03;5143620;27;20043;-80
2022/08/01 16:17:29;;;;;;;1.17;1.08;;;;;;;28.43;39.16;98870.03;5136703;27;20513;-80
2022/08/01 16:19:55;;;;;;;1.10;0.95;;;;;;;28.62;39.37;98885.88;5135618;27;20088;-80
2022/08/01 16:22:23;;;;;;;4.82;1.00;;;;;;;28.88;38.58;98884.19;5153782;27;20050;-80
2022/08/01 16:24:50;;;;;;;3.45;0.85;;;;;;;28.67;38.20;98874.59;5151256;27;20051;-81
2022/08/01 16:27:17;;;;;;;2.28;0.88;;;;;;;28.51;38.72;98879.66;5147878;27;20081;-81
2022/08/01 16:29:43;;;;;;;1.95;1.25;;;;;;;28.39;38.69;98855.00;5143755;27;20752;-80
2022/08/01 16:32:10;;;;;;;1.67;1.10;;;;;;;28.31;39.40;98872.50;5146146;27;20051;-81
2022/08/01 16:34:37;;;;;;;1.05;0.93;;;;;;;28.48;39.03;98885.84;5143240;27;20382;-81
2022/08/01 16:37:03;;;;;;;2.15;1.05;;;;;;;28.27;39.63;98871.47;5141455;27;20046;-81
2022/08/01 16:39:31;;;;;;;4.45;0.95;;;;;;;28.16;39.83;98879.22;5133560;27;20040;-81
2022/08/01 16:41:58;;;;;;;1.73;0.80;;;;;;;28.29;39.12;98877.56;5136769;27;20054;-80
2022/08/01 16:44:24;;;;;;;1.73;1.00;;;;;;;28.33;39.67;98890.59;5142763;27;20035;-81
2022/08/01 16:46:51;;;;;;;2.42;0.73;;;;;;;28.21;39.92;98879.09;5133000;27;20039;-80
2022/08/01 16:49:18;;;;;;;1.40;1.10;;;;;;;28.24;39.61;98893.31;5141096;27;20089;-81
2022/08/01 16:51:44;;;;;;;2.00;1.60;;;;;;;28.34;39.61;98894.25;5150296;27;20438;-80
2022/08/01 16:54:11;;;;;;;2.08;1.30;;;;;;;28.27;39.78;98868.66;5144931;27;20045;-80
2022/08/01 16:56:39;;;;;;;3.08;1.52;;;;;;;27.98;39.85;98878.97;5143127;27;20498;-80
2022/08/01 16:59:05;;;;;;;2.67;1.00;;;;;;;27.71;40.62;98894.47;5151138;27;20047;-81
2022/08/01 17:01:33;;;;;;;1.55;0.90;;;;;;;27.66;40.59;98899.34;5145092;27;20050;-80
2022/08/01 17:04:00;;;;;;;1.90;1.00;;;;;;;27.53;40.97;98895.34;5137801;27;20147;-80
2022/08/01 17:06:27;;;;;;;0.65;0.65;;;;;;;27.53;40.72;98873.03;5137332;27;20055;-80
2022/08/01 17:08:53;;;;;;;1.42;0.80;;;;;;;27.39;41.35;98884.13;5136935;27;20042;-81
2022/08/01 17:11:20;;;;;;;2.15;1.10;;;;;;;27.37;41.16;98894.78;5135389;27;20042;-80
2022/08/01 17:13:48;;;;;;;2.03;0.90;;;;;;;27.35;41.17;98906.22;5136817;27;20402;-81
2022/08/01 17:16:15;;;;;;;1.40;0.80;;;;;;;27.42;41.31;98907.84;5134674;27;20135;-81
2022/08/01 17:18:41;;;;;;;1.35;0.90;;;;;;;27.31;41.25;98904.31;5139735;27;20046;-81
2022/08/01 17:21:08;;;;;;;3.63;1.00;;;;;;;27.27;41.54;98895.72;5136782;27;20038;-81
2022/08/01 17:23:35;;;;;;;3.58;1.00;;;;;;;27.09;41.38;98899.34;5130953;27;20055;-81
2022/08/01 17:26:01;;;;;;;6.55;0.93;;;;;;;27.09;42.05;98902.97;5142515;27;20073;-80
2022/08/01 17:28:28;;;;;;;1.73;0.93;;;;;;;27.16;41.98;98897.84;5134940;27;20043;-81
2022/08/01 17:30:56;;;;;;;4.88;0.70;;;;;;;27.22;41.56;98912.56;5133889;27;20272;-81
2022/08/01 17:33:23;;;;;;;1.27;0.70;;;;;;;27.20;41.55;98914.78;5136432;27;20039;-81
2022/08/01 17:35:50;;;;;;;4.70;1.20;;;;;;;27.06;42.32;98913.91;5138524;27;20057;-80
2022/08/01 17:38:18;;;;;;;1.80;0.73;;;;;;;27.07;42.12;98929.50;5141097;27;20495;-81
2022/08/01 17:40:45;;;;;;;1.10;0.80;;;;;;;26.95;42.22;98911.25;5134952;27;20053;-80
2022/08/01 17:43:12;;;;;;;1.63;0.75;;;;;;;26.94;42.28;98915.16;5133333;27;20050;-80
2022/08/01 17:45:42;;;;;;;1.00;0.63;;;;;;;26.87;42.63;98899.94;5134105;27;20055;-81
2022/08/01 17:48:14;;;;;;;1.75;1.00;;;;;;;27.04;42.27;98922.56;5139213;27;20039;-81
2022/08/01 17:50:42;;;;;;;7.05;1.08;;;;;;;26.89;42.54;98936.69;5139674;27;20050;-81
2022/08/01 17:53:09;;;;;;;2.58;0.90;;;;;;;27.05;42.30;98934.53;5138473;27;20070;-81
2022/08/01 17:55:35;;;;;;;1.85;0.63;;;;;;;26.88;42.45;98910.78;5136292;27;20042;-81
2022/08/01 17:58:03;;;;;;;1.50;0.60;;;;;;;27.11;42.38;98938.94;5136875;27;20047;-81
2022/08/01 18:00:30;;;;;;;1.88;0.70;;;;;;;26.89;42.58;98945.06;5139523;27;20133;-81
2022/08/01 18:02:57;;;;;;;3.25;0.70;;;;;;;26.69;42.86;98937.78;5140511;27;20054;-81
2022/08/01 18:05:25;;;;;;;1.75;0.60;;;;;;;26.52;43.06;98941.03;5128893;27;20058;-81
2022/08/01 18:07:52;;;;;;;5.95;0.75;;;;;;;26.41;43.72;98921.63;5142953;27;20047;-81
2022/08/01 18:10:18;;;;;;;3.47;0.95;;;;;;;26.40;43.77;98941.44;5140602;27;20045;-80
2022/08/01 18:12:45;;;;;;;1.10;0.68;;;;;;;26.25;44.08;98932.09;5135085;27;20047;-81
2022/08/01 18:15:11;;;;;;;0.73;0.65;;;;;;;26.25;44.10;98959.97;5132430;27;20067;-81
2022/08/01 18:17:38;;;;;;;4.72;1.05;;;;;;;26.08;44.55;98965.16;5152738;27;20039;-81
2022/08/01 18:20:06;;;;;;;6.43;0.90;;;;;;;26.07;44.76;98953.16;5141860;27;20066;-80
2022/08/01 18:22:34;;;;;;;2.25;0.82;;;;;;;25.99;44.80;98939.88;5144504;27;20154;-81
2022/08/01 18:25:04;;;;;;;1.42;0.70;;;;;;;26.18;44.69;98959.50;5145440;27;20043;-81
2022/08/01 18:27:31;;;;;;;3.70;0.95;;;;;;;26.08;44.78;98954.84;5134541;27;20049;-81
2022/08/01 18:29:57;;;;;;;1.77;0.70;;;;;;;26.04;45.01;98962.09;5138889;27;20181;-80
2022/08/01 18:32:24;;;;;;;0.88;0.60;;;;;;;25.92;44.98;98940.16;5148772;27;20046;-81
2022/08/01 18:34:50;;;;;;;2.42;1.00;;;;;;;25.90;45.10;98939.66;5132852;27;20047;-80
2022/08/01 18:37:17;;;;;;;1.60;0.68;;;;;;;26.00;45.30;98963.84;5135608;27;20047;-81
2022/08/01 18:39:46;;;;;;;2.55;0.57;;;;;;;25.84;45.56;98938.03;5133644;27;20470;-81
2022/08/01 18:42:12;;;;;;;1.45;0.68;;;;;;;25.73;45.74;98933.66;5133289;27;20050;-81
2022/08/01 18:44:39;;;;;;;5.57;0.65;;;;;;;25.85;45.67;98942.50;5145751;27;20061;-81
2022/08/01 18:47:07;;;;;;;1.00;0.47;;;;;;;25.82;45.74;98947.78;5130274;27;20043;-81
2022/08/01 18:49:34;;;;;;;1.30;0.77;;;;;;;25.74;45.54;98966.81;5143971;27;20458;-82
2022/08/01 18:52:01;;;;;;;4.20;1.00;;;;;;;25.58;45.79;98965.25;5133806;27;20050;-82
2022/08/01 18:54:28;;;;;;;1.70;0.68;;;;;;;25.44;45.65;98943.63;5130916;27;20486;-83
2022/08/01 18:56:56;;;;;;;0.73;0.60;;;;;;;25.59;46.34;98961.31;5145690;27;20083;-82
2022/08/01 18:59:23;;;;;;;1.05;0.75;;;;;;;25.41;46.75;98948.91;5143761;27;20059;-79
2022/08/01 19:01:50;;;;;;;3.78;0.80;;;;;;;25.40;46.24;98950.88;5136882;27;20063;-79
2022/08/01 19:04:17;;;;;;;1.58;0.57;;;;;;;25.31;46.46;98960.97;5139375;27;20051;-80
2022/08/01 19:06:43;;;;;;;3.15;0.77;;;;;;;25.25;46.72;98956.50;5138732;27;20042;-81
2022/08/01 19:09:10;;;;;;;3.05;0.88;;;;;;;25.22;46.77;98955.13;5140307;27;20049;-80
2022/08/01 19:11:37;;;;;;;1.63;0.60;;;;;;;25.23;46.90;98964.28;5138155;27;20502;-79
2022/08/01 19:14:06;;;;;;;3.88;0.80;;;;;;;25.19;47.03;98980.75;5136236;27;20050;-81
2022/08/01 19:16:32;;;;;;;2.03;1.10;;;;;;;25.00;47.79;98966.63;5138028;27;20051;-81
2022/08/01 19:19:03;;;;;;;2.08;0.80;;;;;;;25.14;47.91;98980.78;5142370;27;20039;-81
2022/08/01 19:21:32;;;;;;;0.75;0.70;;;;;;;24.86;48.12;98960.03;5140605;27;20051;-83
2022/08/01 19:24:18;;;;;;;1.02;0.70;;;;;;;24.79;48.44;98967.84;5140895;27;20137;-80
2022/08/01 19:26:48;;;;;;;1.48;0.70;;;;;;;24.81;49.47;98982.28;5134277;27;20139;-80
2022/08/01 19:29:19;;;;;;;2.72;0.80;;;;;;;24.69;49.90;98983.44;5138770;27;20045;-80
2022/08/01 19:31:47;;;;;;;2.42;0.95;;;;;;;24.52;50.72;98989.31;5135323;27;20047;-80
2022/08/01 19:34:15;;;;;;;2.80;0.70;;;;;;;24.39;50.54;98985.16;5136217;27;20051;-79
2022/08/01 19:36:44;;;;;;;2.85;0.93;;;;;;;24.31;51.05;98980.16;5128252;27;20494;-79
2022/08/01 19:39:10;;;;;;;2.15;1.10;;;;;;;24.32;51.96;99004.03;5128817;27;20039;-79
2022/08/01 19:41:38;;;;;;;2.28;0.80;;;;;;;23.85;53.29;98986.56;5136037;27;20047;-79
2022/08/01 19:44:07;;;;;;;6.78;0.85;;;;;;;23.78;54.12;98994.28;5135989;27;20163;-80
2022/08/01 19:46:35;;;;;;;7.25;0.80;;;;;;;23.59;54.79;98988.47;5134506;27;20508;-80
2022/08/01 19:49:01;;;;;;;0.95;0.70;;;;;;;23.59;55.64;99004.25;5135251;27;20047;-80
2022/08/01 19:51:30;;;;;;;1.08;0.73;;;;;;;23.47;55.83;99010.06;5149277;27;20058;-80
2022/08/01 19:54:03;;;;;;;0.87;0.80;;;;;;;23.27;56.25;98986.69;5143140;27;20060;-80
2022/08/01 19:56:38;;;;;;;0.70;0.70;;;;;;;23.13;56.77;99000.25;5145412;27;20314;-80
2022/08/01 19:59:06;;;;;;;0.98;0.70;;;;;;;23.27;57.43;99021.94;5142721;27;20488;-80
2022/08/01 20:01:36;;;;;;;1.77;0.65;;;;;;;23.15;57.55;99023.03;5135191;27;20054;-80
2022/08/01 20:04:03;;;;;;;1.67;0.68;;;;;;;23.05;57.52;99022.94;5142492;27;20054;-80
2022/08/01 20:06:30;;;;;;;3.83;1.25;;;;;;;23.06;58.54;99038.44;5136194;27;20119;-80
2022/08/01 20:08:58;;;;;;;1.63;1.25;;;;;;;23.03;58.71;99038.16;5137756;27;20062;-80
2022/08/01 20:11:27;;;;;;;3.55;1.67;;;;;;;22.88;59.14;99034.19;5139187;27;20107;-80
2022/08/01 20:13:55;;;;;;;1.35;1.25;;;;;;;22.96;59.13;99046.75;5134225;27;20362;-80
2022/08/01 20:16:22;;;;;;;3.75;1.20;;;;;;;22.95;59.27;99048.66;5139633;27;20087;-80
2022/08/01 20:18:50;;;;;;;2.65;0.88;;;;;;;22.87;59.84;99046.41;5143321;27;20126;-80
2022/08/01 20:21:17;;;;;;;1.75;0.90;;;;;;;22.78;60.47;99050.81;5139407;27;20038;-80
2022/08/01 20:23:46;;;;;;;3.47;1.00;;;;;;;22.96;60.30;99066.16;5135059;27;20050;-80
2022/08/01 20:26:15;;;;;;;0.82;0.65;;;;;;;22.88;60.28;99066.63;5133484;27;20489;-80
2022/08/01 20:28:47;;;;;;;7.03;0.82;;;;;;;22.73;60.01;99050.75;5143070;27;20042;-80
2022/08/01 20:31:15;;;;;;;2.65;0.95;;;;;;;22.80;60.33;99068.81;5139978;27;20042;-80
2022/08/01 20:33:44;;;;;;;1.58;0.80;;;;;;;22.70;60.80;99066.00;5141305;27;20074;-80
2022/08/01 20:36:13;;;;;;;0.70;0.60;;;;;;;22.66;63.16;99080.63;5150093;27;20047;-80
2022/08/01 20:38:41;;;;;;;1.92;0.60;;;;;;;22.70;62.89;99081.75;5136132;27;20039;-80
2022/08/01 20:41:07;;;;;;;1.67;0.82;;;;;;;22.65;63.49;99082.56;5138465;27;20049;-80
2022/08/01 20:43:35;;;;;;;3.55;0.80;;;;;;;22.67;63.95;99088.66;5149519;27;20071;-80
2022/08/01 20:46:01;;;;;;;2.72;0.60;;;;;;;22.62;64.05;99078.38;5133620;27;20052;-81
2022/08/01 20:48:30;;;;;;;1.17;0.80;;;;;;;22.48;64.54;99040.31;5148609;27;20039;-80
2022/08/01 20:51:16;;;;;;;1.27;0.70;;;;;;;22.42;64.14;99056.91;5137708;27;20064;-80
2022/08/01 20:53:47;;;;;;;2.60;0.68;;;;;;;22.60;63.81;99065.94;5131266;27;20047;-80
2022/08/01 20:56:25;;;;;;;0.90;0.60;;;;;;;22.60;63.78;99071.47;5149746;27;20047;-80
2022/08/01 20:59:06;;;;;;;2.72;0.77;;;;;;;22.70;62.55;99079.84;5148968;27;20053;-80
2022/08/01 21:01:43;;;;;;;3.72;0.50;;;;;;;22.66;62.82;99064.00;5147034;27;20125;-81
2022/08/01 21:04:18;;;;;;;1.00;0.60;;;;;;;22.58;61.97;99063.41;5142236;27;20055;-80
2022/08/01 21:06:52;;;;;;;1.60;0.60;;;;;;;22.48;63.64;99065.25;5136795;27;20059;-80
2022/08/01 21:09:23;;;;;;;0.70;0.70;;;;;;;22.49;63.09;99061.41;5138164;27;20047;-80
2022/08/01 21:11:54;;;;;;;3.67;0.90;;;;;;;22.40;63.75;99066.59;5142229;27;20054;-80
2022/08/01 21:14:22;;;;;;;2.65;0.80;;;;;;;22.40;64.45;99084.06;5146153;27;20059;-81
2022/08/01 21:16:57;;;;;;;5.68;0.73;;;;;;;22.48;65.00;99085.50;5146653;27;20058;-80
2022/08/01 21:19:27;;;;;;;7.65;0.95;;;;;;;22.44;65.18;99090.72;5147426;27;20051;-80